Home > Products > Valid Products > TAF

000
FTUS44 KMOB 221700 RRA
TAFMOB
TAF
KMOB 221755Z 2218/2318 05009KT P6SM SKC
     FM230300 01005KT P6SM SKC
     FM231300 03008KT P6SM SKC=



000
FTUS44 KMOB 221700 RRA
TAFPNS
TAF
KPNS 221755Z 2218/2318 01005KT P6SM SKC
     FM230300 02005KT P6SM SKC
     FM231300 04007KT P6SM SKC=



000
FTUS44 KMOB 221700 RRA
TAFPNS
TAF
KPNS 221755Z 2218/2318 01005KT P6SM SKC
     FM230300 02005KT P6SM SKC
     FM231300 04007KT P6SM SKC=



000
FTUS44 KMOB 221700 RRA
TAFMOB
TAF
KMOB 221755Z 2218/2318 05009KT P6SM SKC
     FM230300 01005KT P6SM SKC
     FM231300 03008KT P6SM SKC=



000
FTUS44 KMOB 221100
TAFPNS
TAF
KPNS 221125Z 2212/2312 01004KT P6SM SKC
     FM221500 01007KT P6SM SKC
     FM230300 02005KT P6SM SKC=



000
FTUS44 KMOB 221100
TAFMOB
TAF
KMOB 221125Z 2212/2312 02005KT P6SM SKC
     FM221500 02008KT P6SM SKC
     FM230300 01005KT P6SM SKC=



000
FTUS44 KMOB 220500
TAFMOB
TAF
KMOB 220529Z 2206/2306 36006KT P6SM SKC
     FM221500 02007KT P6SM SKC=



000
FTUS44 KMOB 220500
TAFPNS
TAF
KPNS 220529Z 2206/2306 36004KT P6SM SKC
     FM221500 01007KT P6SM SKC=



000
FTUS44 KMOB 220500
TAFMOB
TAF
KMOB 220529Z 2206/2306 36006KT P6SM SKC
     FM221500 02007KT P6SM SKC=



000
FTUS44 KMOB 220500
TAFPNS
TAF
KPNS 220529Z 2206/2306 36004KT P6SM SKC
     FM221500 01007KT P6SM SKC=



000
FTUS44 KMOB 212300
TAFMOB
TAF
KMOB 212323Z 2200/2224 36004KT P6SM SKC
     FM220200 VRB03KT P6SM SKC
     FM221500 02007KT P6SM SKC=



000
FTUS44 KMOB 212300
TAFPNS
TAF
KPNS 212323Z 2200/2224 00000KT P6SM SKC
     FM220200 33003KT P6SM SKC
     FM221500 01007KT P6SM SKC=



000
FTUS44 KMOB 212300
TAFMOB
TAF
KMOB 212323Z 2200/2224 36004KT P6SM SKC
     FM220200 VRB03KT P6SM SKC
     FM221500 02007KT P6SM SKC=



000
FTUS44 KMOB 212300
TAFPNS
TAF
KPNS 212323Z 2200/2224 00000KT P6SM SKC
     FM220200 33003KT P6SM SKC
     FM221500 01007KT P6SM SKC=



000
FTUS44 KMOB 211700 RRA
TAFMOB
TAF
KMOB 211750Z 2118/2218 02009KT P6SM SKC
     FM220200 VRB03KT P6SM SKC
     FM221300 02007KT P6SM SKC=



000
FTUS44 KMOB 211700 RRA
TAFPNS
TAF
KPNS 211750Z 2118/2218 02007KT P6SM SKC
     FM220200 33003KT P6SM SKC
     FM221200 01007KT P6SM SKC=



000
FTUS44 KMOB 211100
TAFMOB
TAF
KMOB 211120Z 2112/2212 VRB03KT P6SM SKC
     FM211400 02006KT P6SM SKC
     FM220200 VRB03KT P6SM SKC=



000
FTUS44 KMOB 211100
TAFMOB
TAF
KMOB 211120Z 2112/2212 VRB03KT P6SM SKC
     FM211400 02006KT P6SM SKC
     FM220200 VRB03KT P6SM SKC=



000
FTUS44 KMOB 211100
TAFPNS
TAF
KPNS 211120Z 2112/2212 01005KT P6SM SKC
     FM211500 03007KT P6SM SKC
     FM220200 33003KT P6SM SKC=



000
FTUS44 KMOB 211100
TAFPNS
TAF
KPNS 211120Z 2112/2212 01005KT P6SM SKC
     FM211500 03007KT P6SM SKC
     FM220200 33003KT P6SM SKC=



000
FTUS44 KMOB 211100
TAFMOB
TAF
KMOB 211120Z 2112/2212 VRB03KT P6SM SKC
     FM211400 02006KT P6SM SKC
     FM220200 VRB03KT P6SM SKC=



000
FTUS44 KMOB 211100
TAFPNS
TAF
KPNS 211120Z 2112/2212 01005KT P6SM SKC
     FM211500 03007KT P6SM SKC
     FM220200 33003KT P6SM SKC=



000
FTUS44 KMOB 211100
TAFMOB
TAF
KMOB 211120Z 2112/2212 VRB03KT P6SM SKC
     FM211400 02006KT P6SM SKC
     FM220200 VRB03KT P6SM SKC=



000
FTUS44 KMOB 211100
TAFPNS
TAF
KPNS 211120Z 2112/2212 01005KT P6SM SKC
     FM211500 03007KT P6SM SKC
     FM220200 33003KT P6SM SKC=



000
FTUS44 KMOB 210500 RRA
TAFMOB
TAF
KMOB 210543Z 2106/2206 VRB03KT P6SM SCT200
     FM211400 02006KT P6SM SKC
     FM220200 VRB03KT P6SM SKC=



000
FTUS44 KMOB 210500 RRA
TAFPNS
TAF
KPNS 210543Z 2106/2206 01005KT P6SM SKC
     FM211500 03007KT P6SM SKC
     FM220200 33003KT P6SM SKC=



000
FTUS44 KMOB 202300
TAFPNS
TAF
KPNS 202320Z 2100/2124 19006KT P6SM SKC
     FM210400 35004KT P6SM SCT250
     FM211500 03007KT P6SM SKC=



000
FTUS44 KMOB 202300
TAFMOB
TAF
KMOB 202320Z 2100/2124 32003KT P6SM SCT120 BKN250
     FM210200 VRB03KT P6SM SCT250
     FM211300 02006KT P6SM SKC=



000
FTUS44 KMOB 202300
TAFMOB
TAF
KMOB 202320Z 2100/2124 32003KT P6SM SCT120 BKN250
     FM210200 VRB03KT P6SM SCT250
     FM211300 02006KT P6SM SKC=



000
FTUS44 KMOB 202300
TAFPNS
TAF
KPNS 202320Z 2100/2124 19006KT P6SM SKC
     FM210400 35004KT P6SM SCT250
     FM211500 03007KT P6SM SKC=



000
FTUS44 KMOB 201700 RRA
TAFPNS
TAF
KPNS 201748Z 2018/2118 07005KT P6SM FEW060 SCT200
     FM201900 16004KT P6SM SCT250
     FM210400 35004KT P6SM SCT250=



000
FTUS44 KMOB 201700 RRA
TAFMOB
TAF
KMOB 201748Z 2018/2118 33005KT P6SM FEW080 SCT200
     FM210200 VRB03KT P6SM SCT250
     FM211300 02006KT P6SM SKC=



000
FTUS44 KMOB 201700 RRA
TAFPNS
TAF
KPNS 201748Z 2018/2118 07005KT P6SM FEW060 SCT200
     FM201900 16004KT P6SM SCT250
     FM210400 35004KT P6SM SCT250=



000
FTUS44 KMOB 201700 RRA
TAFMOB
TAF
KMOB 201748Z 2018/2118 33005KT P6SM FEW080 SCT200
     FM210200 VRB03KT P6SM SCT250
     FM211300 02006KT P6SM SKC=



000
FTUS44 KMOB 201100
TAFPNS
TAF
KPNS 201120Z 2012/2112 02007KT P6SM SKC
     FM201900 15006KT P6SM SKC
     FM210200 VRB03KT P6SM SKC=



000
FTUS44 KMOB 201100
TAFMOB
TAF
KMOB 201120Z 2012/2112 04003KT P6SM SKC
     FM201900 14006KT P6SM SKC
     FM210200 VRB03KT P6SM SKC=



000
FTUS44 KMOB 201100
TAFMOB
TAF
KMOB 201120Z 2012/2112 04003KT P6SM SKC
     FM201900 14006KT P6SM SKC
     FM210200 VRB03KT P6SM SKC=



000
FTUS44 KMOB 201100
TAFPNS
TAF
KPNS 201120Z 2012/2112 02007KT P6SM SKC
     FM201900 15006KT P6SM SKC
     FM210200 VRB03KT P6SM SKC=



000
FTUS44 KMOB 200500
TAFPNS
TAF
KPNS 200526Z 2006/2106 VRB03KT P6SM SKC
     FM201900 15006KT P6SM SKC
     FM210200 VRB03KT P6SM SKC=



000
FTUS44 KMOB 200500
TAFMOB
TAF
KMOB 200526Z 2006/2106 VRB03KT P6SM SKC
     FM201900 14006KT P6SM SKC
     FM210200 VRB03KT P6SM SKC=



000
FTUS44 KMOB 200500
TAFMOB
TAF
KMOB 200526Z 2006/2106 VRB03KT P6SM SKC
     FM201900 14006KT P6SM SKC
     FM210200 VRB03KT P6SM SKC=



000
FTUS44 KMOB 200500
TAFPNS
TAF
KPNS 200526Z 2006/2106 VRB03KT P6SM SKC
     FM201900 15006KT P6SM SKC
     FM210200 VRB03KT P6SM SKC=



000
FTUS44 KMOB 192300
TAFMOB
TAF
KMOB 192320Z 2000/2024 VRB03KT P6SM SKC=



000
FTUS44 KMOB 192300
TAFPNS
TAF
KPNS 192320Z 2000/2024 00000KT P6SM SKC
     FM201900 15006KT P6SM SKC=



000
FTUS44 KMOB 192300
TAFPNS
TAF
KPNS 192320Z 2000/2024 00000KT P6SM SKC
     FM201900 15006KT P6SM SKC=



000
FTUS44 KMOB 192300
TAFMOB
TAF
KMOB 192320Z 2000/2024 VRB03KT P6SM SKC=



000
FTUS44 KMOB 192300
TAFPNS
TAF
KPNS 192320Z 2000/2024 00000KT P6SM SKC
     FM201900 15006KT P6SM SKC=



000
FTUS44 KMOB 192300
TAFMOB
TAF
KMOB 192320Z 2000/2024 VRB03KT P6SM SKC=



000
FTUS44 KMOB 192300
TAFPNS
TAF
KPNS 192320Z 2000/2024 00000KT P6SM SKC
     FM201900 15006KT P6SM SKC=



000
FTUS44 KMOB 192300
TAFMOB
TAF
KMOB 192320Z 2000/2024 VRB03KT P6SM SKC=



    US Dept of Commerce
    National Oceanic and Atmospheric Administration
    National Weather Service
    1325 East West Highway
    Silver Spring, MD 20910
    Page Author: NWS Internet Services Team
Disclaimer
Information Quality
Credits
Glossary
Privacy Policy
Freedom of Information Act (FOIA)
About Us
Career Opportunities